Terminal Aerodrome Forecast
Issued by NWS

Home | Current Version | Previous Version | Text Only | Print | Product List | Glossary On
Versions: 1 2 3 4 5 6 7 8 9 10 11 12 13 14
000
FTUS43 KGRB 291021 AAA
TAFMTW
TAF AMD
KMTW 291021Z 2910/3006 17008KT 3SM BR SCT035 BKN070
      TEMPO 2910/2913 1 1/2SM BR BKN003
     FM291500 21011KT P6SM -SHRA BKN035
     FM292000 24012KT P6SM VCSH BKN045
     FM300000 27010KT P6SM SCT050
     FM300200 26008KT P6SM SCT200=

USA.gov is the U.S. government's official web portal to all federal, state and local government web resources and services.